Time;durP1;ratioP1;P1;durP2;ratioP2;P2;SDS_P1;SDS_P2;PMS_P1;PMS_P2;Temp;Humidity;BMP_temperature;BMP_pressure;BME280_temperature;BME280_humidity;BME280_pressure;Samples;Min_cycle;Max_cycle;Signal;HPM_P1;HPM_P2
2021/01/27 00:00:54;;;;;;;3.20;1.87;;;;;;;;;;4999509;28;20038;-54
2021/01/27 00:03:20;;;;;;;2.93;1.90;;;;;;;;;;5008479;28;20132;-55
2021/01/27 00:05:47;;;;;;;4.17;2.20;;;;;;;;;;5001628;28;20517;-56
2021/01/27 00:08:14;;;;;;;4.17;2.10;;;;;;;;;;4993754;28;20068;-54
2021/01/27 00:10:40;;;;;;;3.67;2.10;;;;;;;;;;5007128;28;20446;-58
2021/01/27 00:13:07;;;;;;;4.77;1.90;;;;;;;;;;4990099;28;20038;-55
2021/01/27 00:15:35;;;;;;;1.93;1.27;;;;;;;;;;5001529;28;20067;-56
2021/01/27 00:18:01;;;;;;;3.33;1.97;;;;;;;;;;4998549;28;20088;-55
2021/01/27 00:20:31;;;;;;;3.73;1.60;;;;;;;;;;5001371;28;20050;-55
2021/01/27 00:22:57;;;;;;;3.60;1.80;;;;;;;;;;4998257;28;20045;-53
2021/01/27 00:25:25;;;;;;;3.07;1.80;;;;;;;;;;5005355;28;20038;-54
2021/01/27 00:27:51;;;;;;;5.10;1.80;;;;;;;;;;4994321;28;20036;-53
2021/01/27 00:30:20;;;;;;;4.30;2.20;;;;;;;;;;5010152;28;20091;-55
2021/01/27 00:32:46;;;;;;;2.90;1.57;;;;;;;;;;5000514;28;20071;-53
2021/01/27 00:35:13;;;;;;;3.97;1.87;;;;;;;;;;5001770;28;20038;-52
2021/01/27 00:37:39;;;;;;;2.37;1.43;;;;;;;;;;4996182;28;20030;-54
2021/01/27 00:40:06;;;;;;;4.13;1.80;;;;;;;;;;4996175;28;20030;-54
2021/01/27 00:42:32;;;;;;;2.90;1.83;;;;;;;;;;5020223;28;20139;-53
2021/01/27 00:44:58;;;;;;;2.13;1.47;;;;;;;;;;5044175;28;20447;-53
2021/01/27 00:47:24;;;;;;;2.97;1.60;;;;;;;;;;4996654;28;20041;-52
2021/01/27 00:49:50;;;;;;;5.13;1.30;;;;;;;;;;4993411;28;20063;-54
2021/01/27 00:52:16;;;;;;;2.97;2.00;;;;;;;;;;5030927;28;20034;-51
2021/01/27 00:54:42;;;;;;;2.43;1.60;;;;;;;;;;5009959;27;20514;-55
2021/01/27 00:57:08;;;;;;;1.57;1.37;;;;;;;;;;4998591;28;20038;-52
2021/01/27 00:59:34;;;;;;;3.57;1.63;;;;;;;;;;4986064;28;20034;-51
2021/01/27 01:02:00;;;;;;;4.37;1.77;;;;;;;;;;5009730;28;20160;-55
2021/01/27 01:04:26;;;;;;;2.70;1.50;;;;;;;;;;5003699;28;20034;-55
2021/01/27 01:06:52;;;;;;;2.67;1.17;;;;;;;;;;5000392;28;20041;-53
2021/01/27 01:09:18;;;;;;;2.63;1.10;;;;;;;;;;5034495;28;20033;-54
2021/01/27 01:11:44;;;;;;;2.13;1.50;;;;;;;;;;4996441;28;20043;-53
2021/01/27 01:14:10;;;;;;;3.03;1.30;;;;;;;;;;4996166;28;20045;-60
2021/01/27 01:16:38;;;;;;;2.07;1.30;;;;;;;;;;5002004;28;20042;-56
2021/01/27 01:19:04;;;;;;;2.80;1.20;;;;;;;;;;5032911;28;20036;-54
2021/01/27 01:21:30;;;;;;;1.70;0.97;;;;;;;;;;5006153;28;20046;-56
2021/01/27 01:23:56;;;;;;;3.47;1.93;;;;;;;;;;5051900;27;20040;-55
2021/01/27 01:26:22;;;;;;;4.90;2.03;;;;;;;;;;5002072;28;20030;-53
2021/01/27 01:28:48;;;;;;;5.80;2.13;;;;;;;;;;4999563;28;20030;-52
2021/01/27 01:31:14;;;;;;;5.23;2.10;;;;;;;;;;4993550;28;20536;-54
2021/01/27 01:33:40;;;;;;;4.40;2.13;;;;;;;;;;5016023;28;20076;-59
2021/01/27 01:36:06;;;;;;;6.63;2.50;;;;;;;;;;5006038;28;20044;-53
2021/01/27 01:38:32;;;;;;;5.07;2.70;;;;;;;;;;4999164;28;20041;-55
2021/01/27 01:41:02;;;;;;;3.70;2.20;;;;;;;;;;4998273;28;20030;-53
2021/01/27 01:43:29;;;;;;;6.00;2.50;;;;;;;;;;4997320;28;20551;-50
2021/01/27 01:45:59;;;;;;;3.37;2.60;;;;;;;;;;4994528;28;20163;-51
2021/01/27 01:48:31;;;;;;;6.63;2.70;;;;;;;;;;5000558;28;20040;-51
2021/01/27 01:51:00;;;;;;;3.77;2.60;;;;;;;;;;4991004;28;20244;-51
2021/01/27 01:53:26;;;;;;;4.27;2.60;;;;;;;;;;5025951;28;20026;-52
2021/01/27 01:55:54;;;;;;;6.80;2.70;;;;;;;;;;4995351;28;20041;-54
2021/01/27 01:58:21;;;;;;;5.43;2.97;;;;;;;;;;5005391;28;20030;-55
2021/01/27 02:00:49;;;;;;;5.00;2.80;;;;;;;;;;4993568;28;20057;-54
2021/01/27 02:03:15;;;;;;;5.40;2.70;;;;;;;;;;4993703;28;20038;-54
2021/01/27 02:05:41;;;;;;;2.90;2.40;;;;;;;;;;4999403;28;20088;-52
2021/01/27 02:08:07;;;;;;;3.70;2.60;;;;;;;;;;5028285;28;20034;-55
2021/01/27 02:10:33;;;;;;;3.40;2.77;;;;;;;;;;5002497;28;20481;-55
2021/01/27 02:13:18;;;;;;;5.30;2.93;;;;;;;;;;4999556;28;20037;-55
2021/01/27 02:15:52;;;;;;;4.85;2.90;;;;;;;;;;5001314;28;20042;-52
2021/01/27 02:18:29;;;;;;;3.10;2.22;;;;;;;;;;5026822;28;20038;-52
2021/01/27 02:21:19;;;;;;;3.70;2.60;;;;;;;;;;5003343;28;20041;-54
2021/01/27 02:24:03;;;;;;;4.23;2.57;;;;;;;;;;4980365;28;20141;-54
2021/01/27 02:26:33;;;;;;;4.10;2.05;;;;;;;;;;5001279;28;20053;-55
2021/01/27 02:29:17;;;;;;;4.70;2.83;;;;;;;;;;4998037;28;20065;-55
2021/01/27 02:31:58;;;;;;;3.30;2.22;;;;;;;;;;5001124;28;20087;-56
2021/01/27 02:34:52;;;;;;;3.13;2.67;;;;;;;;;;5000250;28;20034;-55
2021/01/27 02:37:21;;;;;;;6.23;2.37;;;;;;;;;;4976877;28;20079;-54
2021/01/27 02:39:51;;;;;;;5.23;2.93;;;;;;;;;;5001810;28;20045;-54
2021/01/27 02:42:24;;;;;;;4.20;2.73;;;;;;;;;;4995702;28;20045;-53
2021/01/27 02:44:52;;;;;;;10.97;2.97;;;;;;;;;;5002581;28;20027;-54
2021/01/27 02:47:22;;;;;;;4.50;2.40;;;;;;;;;;4995411;28;20030;-49
2021/01/27 02:49:53;;;;;;;3.70;2.67;;;;;;;;;;4996602;28;20540;-52
2021/01/27 02:52:21;;;;;;;5.37;2.63;;;;;;;;;;5006162;28;20102;-51
2021/01/27 02:54:54;;;;;;;4.97;2.80;;;;;;;;;;4995506;28;20034;-54
2021/01/27 02:57:23;;;;;;;2.73;2.30;;;;;;;;;;5001346;28;20061;-54
2021/01/27 02:59:58;;;;;;;4.50;2.13;;;;;;;;;;5046197;27;20444;-54
2021/01/27 03:02:37;;;;;;;2.57;2.20;;;;;;;;;;4996736;28;20052;-54
2021/01/27 03:05:12;;;;;;;4.20;2.67;;;;;;;;;;4994676;28;20057;-51
2021/01/27 03:07:39;;;;;;;4.17;2.13;;;;;;;;;;5002996;28;20040;-54
2021/01/27 03:10:10;;;;;;;3.07;2.27;;;;;;;;;;4992103;28;20042;-53
2021/01/27 03:12:36;;;;;;;4.27;2.30;;;;;;;;;;4994356;28;20041;-52
2021/01/27 03:15:04;;;;;;;3.57;2.40;;;;;;;;;;4997119;28;20038;-56
2021/01/27 03:17:32;;;;;;;4.17;2.33;;;;;;;;;;4999680;28;20489;-54
2021/01/27 03:20:05;;;;;;;3.50;2.20;;;;;;;;;;5000942;28;20038;-53
2021/01/27 03:22:35;;;;;;;4.70;2.77;;;;;;;;;;5023655;28;20046;-54
2021/01/27 03:25:06;;;;;;;2.73;2.20;;;;;;;;;;5000434;28;20047;-53
2021/01/27 03:27:36;;;;;;;5.57;2.77;;;;;;;;;;5001069;28;20430;-55
2021/01/27 03:30:06;;;;;;;3.70;2.17;;;;;;;;;;4997144;28;20035;-55
2021/01/27 03:32:41;;;;;;;3.77;2.30;;;;;;;;;;5006724;28;20064;-53
2021/01/27 03:35:31;;;;;;;5.07;2.87;;;;;;;;;;4997156;28;20031;-55
2021/01/27 03:38:03;;;;;;;3.70;2.27;;;;;;;;;;5013931;28;20115;-56
2021/01/27 03:40:29;;;;;;;5.40;3.00;;;;;;;;;;4999739;28;20037;-54
2021/01/27 03:43:11;;;;;;;4.43;3.10;;;;;;;;;;5011389;28;20042;-55
2021/01/27 03:45:40;;;;;;;5.10;2.73;;;;;;;;;;5007549;28;20046;-56
2021/01/27 03:48:15;;;;;;;3.20;2.87;;;;;;;;;;4999058;28;20031;-55
2021/01/27 03:50:43;;;;;;;4.67;2.97;;;;;;;;;;4994721;28;20059;-54
2021/01/27 03:56:16;;;;;;;4.37;2.70;;;;;;;;;;4942783;28;20057;-55
2021/01/27 03:58:44;;;;;;;4.37;3.10;;;;;;;;;;5026244;28;20799;-54
2021/01/27 04:01:12;;;;;;;4.93;3.40;;;;;;;;;;5001141;28;20113;-55
2021/01/27 04:03:38;;;;;;;4.23;3.07;;;;;;;;;;5002614;28;20104;-55
2021/01/27 04:06:05;;;;;;;4.00;2.97;;;;;;;;;;4995187;28;20045;-54
2021/01/27 04:08:31;;;;;;;4.83;3.33;;;;;;;;;;4999398;28;20054;-54
2021/01/27 04:10:59;;;;;;;3.70;3.13;;;;;;;;;;4994321;28;20040;-51
2021/01/27 04:13:25;;;;;;;3.30;2.63;;;;;;;;;;5002829;28;20046;-54
2021/01/27 04:15:51;;;;;;;4.50;3.53;;;;;;;;;;4995235;28;20047;-52
2021/01/27 04:18:17;;;;;;;4.73;3.23;;;;;;;;;;4997231;28;20058;-54
2021/01/27 04:20:43;;;;;;;6.77;3.60;;;;;;;;;;4998405;28;20041;-54
2021/01/27 04:23:09;;;;;;;7.53;3.87;;;;;;;;;;4996191;28;20452;-53
2021/01/27 04:25:35;;;;;;;4.20;3.30;;;;;;;;;;5002159;28;20041;-55
2021/01/27 04:28:01;;;;;;;3.93;3.43;;;;;;;;;;5004411;28;20042;-55
2021/01/27 04:30:29;;;;;;;5.17;3.57;;;;;;;;;;5022482;28;20722;-54
2021/01/27 04:32:56;;;;;;;5.83;3.77;;;;;;;;;;5012704;28;20117;-53
2021/01/27 04:35:22;;;;;;;7.03;3.07;;;;;;;;;;5000246;28;20117;-53
2021/01/27 04:37:48;;;;;;;5.93;3.63;;;;;;;;;;4992648;28;20068;-54
2021/01/27 04:40:17;;;;;;;5.03;3.70;;;;;;;;;;4997297;28;20042;-53
2021/01/27 04:42:43;;;;;;;5.10;3.00;;;;;;;;;;5006221;27;20061;-54
2021/01/27 04:45:09;;;;;;;3.73;2.63;;;;;;;;;;5000845;28;20065;-50
2021/01/27 04:47:44;;;;;;;7.53;3.77;;;;;;;;;;4996249;28;20042;-51
2021/01/27 04:50:14;;;;;;;6.27;3.30;;;;;;;;;;4993721;28;20129;-53
2021/01/27 04:53:03;;;;;;;6.40;3.00;;;;;;;;;;4994398;28;20038;-54
2021/01/27 04:55:47;;;;;;;4.40;3.00;;;;;;;;;;4942155;28;20038;-52
2021/01/27 04:58:18;;;;;;;5.75;2.88;;;;;;;;;;4994321;28;20417;-50
2021/01/27 05:00:47;;;;;;;7.73;3.10;;;;;;;;;;5010290;28;20141;-49
2021/01/27 05:03:22;;;;;;;3.73;2.53;;;;;;;;;;5014885;28;20081;-50
2021/01/27 05:05:51;;;;;;;6.07;2.93;;;;;;;;;;5007073;28;20057;-51
2021/01/27 05:08:23;;;;;;;5.33;3.07;;;;;;;;;;4999067;28;20494;-49
2021/01/27 05:10:57;;;;;;;3.60;2.40;;;;;;;;;;4999504;28;20042;-51
2021/01/27 05:13:45;;;;;;;5.05;2.70;;;;;;;;;;4988672;28;21791;-52
2021/01/27 05:16:14;;;;;;;5.80;2.77;;;;;;;;;;4997216;28;20046;-52
2021/01/27 05:18:40;;;;;;;6.60;3.07;;;;;;;;;;5000889;28;20410;-53
2021/01/27 05:21:12;;;;;;;4.53;2.90;;;;;;;;;;4996708;28;20030;-50
2021/01/27 05:23:38;;;;;;;3.73;2.77;;;;;;;;;;4997220;28;20133;-50
2021/01/27 05:26:05;;;;;;;4.60;2.67;;;;;;;;;;5007539;28;20065;-56
2021/01/27 05:28:33;;;;;;;7.27;3.17;;;;;;;;;;4994504;28;20046;-55
2021/01/27 05:31:00;;;;;;;4.10;3.00;;;;;;;;;;5010825;28;20040;-54
2021/01/27 05:33:45;;;;;;;8.40;2.90;;;;;;;;;;5008593;28;20407;-55
2021/01/27 05:36:14;;;;;;;4.80;3.23;;;;;;;;;;4996523;28;20034;-55
2021/01/27 05:38:40;;;;;;;4.77;2.70;;;;;;;;;;5001164;28;20030;-51
2021/01/27 05:41:19;;;;;;;3.67;2.10;;;;;;;;;;4994491;28;20039;-56
2021/01/27 05:43:47;;;;;;;4.30;3.17;;;;;;;;;;4995450;28;20057;-55
2021/01/27 05:46:17;;;;;;;6.30;2.83;;;;;;;;;;5000078;28;20039;-54
2021/01/27 05:48:48;;;;;;;3.67;2.57;;;;;;;;;;4998864;28;20608;-53
2021/01/27 05:51:19;;;;;;;6.20;3.03;;;;;;;;;;5029208;28;20034;-53
2021/01/27 05:53:45;;;;;;;4.80;2.50;;;;;;;;;;5000089;28;20038;-52
2021/01/27 05:56:16;;;;;;;5.70;3.27;;;;;;;;;;4989982;28;20487;-55
2021/01/27 05:58:57;;;;;;;6.63;2.83;;;;;;;;;;5036661;28;20034;-55
2021/01/27 06:01:29;;;;;;;6.13;2.50;;;;;;;;;;5018939;28;20038;-54
2021/01/27 06:04:03;;;;;;;6.37;2.37;;;;;;;;;;5009529;28;20490;-54
2021/01/27 06:06:31;;;;;;;5.90;1.95;;;;;;;;;;4994335;28;20119;-52
2021/01/27 06:08:58;;;;;;;8.00;2.53;;;;;;;;;;5000670;28;20125;-54
2021/01/27 06:11:25;;;;;;;3.63;2.20;;;;;;;;;;5018900;28;20048;-55
2021/01/27 06:14:03;;;;;;;5.67;2.50;;;;;;;;;;5049776;28;20128;-55
2021/01/27 06:16:34;;;;;;;3.63;2.30;;;;;;;;;;4996424;28;20061;-53
2021/01/27 06:19:10;;;;;;;3.17;2.10;;;;;;;;;;5002372;28;20030;-52
2021/01/27 06:21:36;;;;;;;6.23;2.77;;;;;;;;;;4996997;28;20041;-54
2021/01/27 06:24:11;;;;;;;3.70;2.27;;;;;;;;;;5000020;28;20417;-52
2021/01/27 06:26:37;;;;;;;;;;;;;;;;;;4993770;28;20521;-54
2021/01/27 06:29:12;;;;;;;4.83;2.47;;;;;;;;;;5027500;28;20000;-54
2021/01/27 06:31:42;;;;;;;4.15;2.10;;;;;;;;;;4997406;28;20519;-53
2021/01/27 06:34:17;;;;;;;4.87;2.50;;;;;;;;;;5011846;28;20054;-54
2021/01/27 06:36:46;;;;;;;6.03;2.10;;;;;;;;;;4994258;28;20038;-55
2021/01/27 06:39:30;;;;;;;4.33;2.00;;;;;;;;;;5044987;28;20382;-51
2021/01/27 06:42:02;;;;;;;5.10;2.20;;;;;;;;;;5007664;27;20045;-54
2021/01/27 06:44:28;;;;;;;4.73;2.23;;;;;;;;;;4999883;28;20391;-55
2021/01/27 06:47:00;;;;;;;5.70;1.73;;;;;;;;;;4990934;28;20045;-51
2021/01/27 06:49:45;;;;;;;7.47;2.43;;;;;;;;;;4997013;28;20034;-55
2021/01/27 06:52:34;;;;;;;4.47;2.58;;;;;;;;;;4991050;28;20094;-54
2021/01/27 06:55:06;;;;;;;5.97;2.50;;;;;;;;;;4974149;28;20034;-52
2021/01/27 06:57:51;;;;;;;4.43;2.67;;;;;;;;;;4995013;28;20054;-54
2021/01/27 07:00:20;;;;;;;6.93;2.65;;;;;;;;;;4977654;28;20038;-55
2021/01/27 07:02:49;;;;;;;5.40;2.27;;;;;;;;;;4997441;28;20530;-55
2021/01/27 07:05:15;;;;;;;9.07;3.27;;;;;;;;;;4998919;28;20088;-55
2021/01/27 07:07:50;;;;;;;5.03;2.70;;;;;;;;;;4997359;28;20038;-55
2021/01/27 07:10:16;;;;;;;5.70;2.77;;;;;;;;;;5003107;28;20042;-55
2021/01/27 07:12:43;;;;;;;5.97;2.70;;;;;;;;;;4994809;28;20117;-55
2021/01/27 07:15:28;;;;;;;5.93;2.70;;;;;;;;;;4998176;28;20541;-54
2021/01/27 07:18:06;;;;;;;7.10;2.40;;;;;;;;;;4990145;28;20051;-53
2021/01/27 07:20:32;;;;;;;6.20;2.20;;;;;;;;;;5003311;28;20041;-53
2021/01/27 07:23:17;;;;;;;5.93;2.23;;;;;;;;;;5000219;28;20422;-54
2021/01/27 07:25:43;;;;;;;5.90;2.33;;;;;;;;;;5016596;28;20038;-54
2021/01/27 07:28:13;;;;;;;4.90;2.20;;;;;;;;;;5000189;28;20042;-51
2021/01/27 07:30:46;;;;;;;4.80;2.13;;;;;;;;;;5028542;28;20093;-51
2021/01/27 07:33:16;;;;;;;7.20;2.43;;;;;;;;;;4996860;28;20061;-51
2021/01/27 07:35:54;;;;;;;4.53;2.07;;;;;;;;;;5030056;28;20538;-52
2021/01/27 07:38:24;;;;;;;3.53;2.60;;;;;;;;;;4999879;28;20034;-54
2021/01/27 07:40:58;;;;;;;7.83;2.53;;;;;;;;;;5029755;28;20084;-54
2021/01/27 07:43:27;;;;;;;4.43;2.33;;;;;;;;;;4999431;28;20150;-55
2021/01/27 07:45:55;;;;;;;8.27;3.53;;;;;;;;;;4996824;28;20038;-55
2021/01/27 07:48:42;;;;;;;6.50;3.77;;;;;;;;;;4999645;28;20522;-54
2021/01/27 07:51:11;;;;;;;11.17;4.63;;;;;;;;;;4993904;28;20611;-54
2021/01/27 07:53:43;;;;;;;12.80;5.50;;;;;;;;;;4998640;28;20030;-53
2021/01/27 07:56:09;;;;;;;14.57;6.10;;;;;;;;;;4995571;28;20035;-52
2021/01/27 07:58:51;;;;;;;17.30;6.43;;;;;;;;;;4993242;28;20053;-55
2021/01/27 08:01:22;;;;;;;15.63;6.63;;;;;;;;;;4969785;28;20042;-52
2021/01/27 08:03:54;;;;;;;15.17;6.70;;;;;;;;;;5001210;28;20045;-55
2021/01/27 08:06:21;;;;;;;15.67;7.67;;;;;;;;;;5028647;28;20050;-56
2021/01/27 08:08:57;;;;;;;17.47;7.07;;;;;;;;;;4992228;28;20034;-56
2021/01/27 08:11:38;;;;;;;13.50;8.00;;;;;;;;;;4998302;28;20041;-55
2021/01/27 08:14:05;;;;;;;14.83;7.13;;;;;;;;;;5002524;28;20034;-55
2021/01/27 08:16:34;;;;;;;14.50;6.20;;;;;;;;;;4996520;28;20377;-56
2021/01/27 08:19:12;;;;;;;13.40;6.30;;;;;;;;;;4998940;28;20038;-53
2021/01/27 08:21:58;;;;;;;9.50;6.07;;;;;;;;;;4995021;28;20052;-56
2021/01/27 08:24:49;;;;;;;11.73;6.33;;;;;;;;;;4973920;28;20127;-55
2021/01/27 08:27:16;;;;;;;19.07;6.87;;;;;;;;;;4969904;28;20049;-54
2021/01/27 08:29:42;;;;;;;15.47;6.47;;;;;;;;;;5002021;28;20053;-59
2021/01/27 08:32:26;;;;;;;14.47;6.40;;;;;;;;;;4997342;28;20090;-54
2021/01/27 08:34:53;;;;;;;11.53;5.90;;;;;;;;;;4990889;28;20406;-56
2021/01/27 08:37:21;;;;;;;10.57;6.00;;;;;;;;;;4994270;28;20211;-54
2021/01/27 08:39:47;;;;;;;12.17;6.33;;;;;;;;;;5016968;28;20034;-53
2021/01/27 08:42:26;;;;;;;13.43;6.47;;;;;;;;;;4994232;28;20042;-56
2021/01/27 08:44:53;;;;;;;12.40;7.03;;;;;;;;;;5000121;28;20045;-56
2021/01/27 08:47:19;;;;;;;13.70;6.53;;;;;;;;;;4995699;28;20153;-56
2021/01/27 08:49:50;;;;;;;13.90;6.33;;;;;;;;;;5001817;28;20125;-55
2021/01/27 08:52:16;;;;;;;10.60;6.07;;;;;;;;;;4985339;28;20046;-56
2021/01/27 08:54:42;;;;;;;16.53;7.37;;;;;;;;;;5012167;28;20471;-56
2021/01/27 08:57:37;;;;;;;14.20;5.00;;;;;;;;;;4993105;28;20038;-55
2021/01/27 09:00:12;;;;;;;9.60;4.85;;;;;;;;;;4973876;28;20037;-56
2021/01/27 09:02:49;;;;;;;8.43;4.30;;;;;;;;;;4997280;28;20395;-56
2021/01/27 09:05:15;;;;;;;7.60;3.83;;;;;;;;;;5014112;28;20038;-52
2021/01/27 09:07:48;;;;;;;4.93;2.93;;;;;;;;;;4997999;28;20134;-57
2021/01/27 09:10:14;;;;;;;7.87;3.00;;;;;;;;;;5008904;28;20041;-53
2021/01/27 09:12:40;;;;;;;7.23;3.13;;;;;;;;;;5011931;28;20047;-55
2021/01/27 09:15:06;;;;;;;6.73;3.50;;;;;;;;;;4996168;28;20035;-55
2021/01/27 09:17:34;;;;;;;8.03;4.10;;;;;;;;;;5012177;28;20506;-55
2021/01/27 09:20:01;;;;;;;8.23;3.33;;;;;;;;;;5001018;28;20040;-56
2021/01/27 09:22:27;;;;;;;11.03;3.90;;;;;;;;;;5007338;28;20060;-56
2021/01/27 09:24:54;;;;;;;8.40;3.43;;;;;;;;;;4993482;28;20046;-55
2021/01/27 09:27:27;;;;;;;9.90;4.37;;;;;;;;;;5030382;28;20046;-56
2021/01/27 09:30:01;;;;;;;7.60;3.00;;;;;;;;;;5013922;28;20049;-55
2021/01/27 09:32:28;;;;;;;3.75;2.72;;;;;;;;;;4996082;28;20041;-56
2021/01/27 09:34:54;;;;;;;6.30;3.43;;;;;;;;;;5014122;28;20034;-56
2021/01/27 09:37:22;;;;;;;8.00;3.73;;;;;;;;;;4995654;28;20038;-56
2021/01/27 09:39:53;;;;;;;7.10;3.50;;;;;;;;;;5010783;28;20047;-56
2021/01/27 09:42:29;;;;;;;7.80;4.10;;;;;;;;;;4994426;28;20038;-53
2021/01/27 09:45:15;;;;;;;7.93;4.10;;;;;;;;;;4994804;28;20522;-54
2021/01/27 09:47:43;;;;;;;9.27;3.60;;;;;;;;;;4995703;28;20065;-52
2021/01/27 09:50:10;;;;;;;8.90;4.17;;;;;;;;;;5010787;28;20041;-54
2021/01/27 09:52:36;;;;;;;11.07;4.97;;;;;;;;;;4983137;28;20077;-55
2021/01/27 09:55:08;;;;;;;8.77;3.83;;;;;;;;;;4985518;28;20099;-52
2021/01/27 09:57:35;;;;;;;8.67;3.90;;;;;;;;;;5024437;28;20124;-52
2021/01/27 10:00:04;;;;;;;6.17;3.23;;;;;;;;;;5030106;28;20796;-54
2021/01/27 10:02:32;;;;;;;3.37;2.73;;;;;;;;;;5019640;28;20044;-55
2021/01/27 10:04:58;;;;;;;5.90;2.37;;;;;;;;;;4993024;28;20121;-56
2021/01/27 10:07:27;;;;;;;4.30;2.37;;;;;;;;;;5001231;28;20398;-56
2021/01/27 10:10:04;;;;;;;7.17;2.60;;;;;;;;;;5007830;28;22280;-56
2021/01/27 10:12:32;;;;;;;6.27;3.00;;;;;;;;;;4998988;28;20046;-55
2021/01/27 10:15:10;;;;;;;9.70;4.00;;;;;;;;;;4994663;28;20077;-54
2021/01/27 10:17:36;;;;;;;9.60;3.17;;;;;;;;;;5002711;28;20106;-56
2021/01/27 10:20:03;;;;;;;10.33;3.30;;;;;;;;;;5008912;28;20046;-54
2021/01/27 10:22:33;;;;;;;9.00;3.47;;;;;;;;;;4998769;28;20042;-56
2021/01/27 10:25:00;;;;;;;7.70;2.93;;;;;;;;;;4997374;28;20038;-54
2021/01/27 10:27:42;;;;;;;4.37;1.83;;;;;;;;;;4995573;28;20050;-55
2021/01/27 10:30:29;;;;;;;4.63;1.67;;;;;;;;;;4999069;28;20042;-54
2021/01/27 10:32:55;;;;;;;4.57;2.07;;;;;;;;;;4978127;28;20125;-56
2021/01/27 10:35:26;;;;;;;5.70;2.07;;;;;;;;;;5003405;28;20042;-53
2021/01/27 10:37:53;;;;;;;4.63;1.90;;;;;;;;;;4996138;28;20053;-55
2021/01/27 10:40:19;;;;;;;6.47;2.50;;;;;;;;;;5003656;28;20083;-56
2021/01/27 10:42:50;;;;;;;4.50;1.90;;;;;;;;;;5001391;28;20073;-53
2021/01/27 10:45:22;;;;;;;4.83;1.97;;;;;;;;;;5005418;28;20041;-52
2021/01/27 10:48:18;;;;;;;3.20;1.70;;;;;;;;;;4996405;28;20414;-55
2021/01/27 10:50:46;;;;;;;2.73;1.50;;;;;;;;;;4983802;28;20046;-54
2021/01/27 10:53:13;;;;;;;3.03;1.37;;;;;;;;;;5019637;28;20113;-54
2021/01/27 10:55:41;;;;;;;11.63;1.80;;;;;;;;;;5001760;28;20037;-55
2021/01/27 10:58:17;;;;;;;5.27;1.80;;;;;;;;;;4999534;28;20050;-52
2021/01/27 11:00:43;;;;;;;3.70;2.00;;;;;;;;;;4999996;28;20046;-54
2021/01/27 11:03:10;;;;;;;2.53;1.13;;;;;;;;;;4998463;28;20046;-55
2021/01/27 11:05:36;;;;;;;3.23;1.50;;;;;;;;;;5000944;28;20048;-53
2021/01/27 11:08:04;;;;;;;2.77;1.57;;;;;;;;;;5030185;28;20200;-52
2021/01/27 11:10:30;;;;;;;1.63;0.97;;;;;;;;;;4998046;28;20076;-55
2021/01/27 11:12:56;;;;;;;2.17;1.03;;;;;;;;;;4982707;28;20087;-54
2021/01/27 11:15:22;;;;;;;5.00;2.90;;;;;;;;;;4978601;28;20503;-56
2021/01/27 11:17:49;;;;;;;2.20;1.27;;;;;;;;;;4995037;28;20038;-51
2021/01/27 11:20:19;;;;;;;3.80;1.20;;;;;;;;;;4982278;28;20042;-55
2021/01/27 11:22:45;;;;;;;2.90;1.40;;;;;;;;;;4995915;28;20117;-54
2021/01/27 11:25:11;;;;;;;3.67;1.07;;;;;;;;;;5000219;28;20056;-52
2021/01/27 11:27:37;;;;;;;4.33;1.50;;;;;;;;;;5001653;28;20042;-55
2021/01/27 11:30:04;;;;;;;3.53;2.10;;;;;;;;;;4999909;28;20046;-53
2021/01/27 11:32:30;;;;;;;3.27;2.43;;;;;;;;;;4995014;28;20083;-54
2021/01/27 11:34:56;;;;;;;8.40;4.23;;;;;;;;;;4997465;28;20029;-54
2021/01/27 11:37:22;;;;;;;12.77;5.90;;;;;;;;;;4995744;28;20473;-52
2021/01/27 11:39:48;;;;;;;11.77;6.63;;;;;;;;;;5004598;28;20052;-54
2021/01/27 11:42:14;;;;;;;12.73;8.47;;;;;;;;;;5012168;28;20494;-54
2021/01/27 11:44:40;;;;;;;9.97;7.43;;;;;;;;;;4997588;28;20034;-56
2021/01/27 11:47:06;;;;;;;11.37;6.70;;;;;;;;;;5001950;28;20447;-52
2021/01/27 11:49:32;;;;;;;12.63;6.67;;;;;;;;;;4996560;28;20034;-56
2021/01/27 11:51:58;;;;;;;9.47;6.60;;;;;;;;;;5002068;28;20037;-55
2021/01/27 11:54:24;;;;;;;10.57;7.67;;;;;;;;;;4999435;28;20045;-53
2021/01/27 11:56:51;;;;;;;18.33;7.70;;;;;;;;;;4999110;28;20057;-53
2021/01/27 11:59:17;;;;;;;12.37;7.53;;;;;;;;;;4998885;28;20042;-53
2021/01/27 12:01:43;;;;;;;10.50;7.10;;;;;;;;;;4997975;28;20034;-54
2021/01/27 12:04:09;;;;;;;15.77;8.50;;;;;;;;;;4995667;28;20368;-55
2021/01/27 12:06:35;;;;;;;16.13;9.37;;;;;;;;;;5000402;28;20045;-56
2021/01/27 12:09:01;;;;;;;12.63;8.23;;;;;;;;;;4996242;28;20031;-55
2021/01/27 12:11:27;;;;;;;14.17;7.70;;;;;;;;;;4988705;28;20044;-54
2021/01/27 12:13:53;;;;;;;15.00;8.33;;;;;;;;;;5002169;28;20511;-55
2021/01/27 12:16:19;;;;;;;12.63;7.07;;;;;;;;;;4999958;28;20038;-55
2021/01/27 12:18:45;;;;;;;12.83;7.77;;;;;;;;;;5000148;28;20552;-56
2021/01/27 12:21:11;;;;;;;15.73;7.90;;;;;;;;;;4997130;28;20052;-54
2021/01/27 12:23:37;;;;;;;13.20;7.97;;;;;;;;;;4998334;28;20109;-54
2021/01/27 12:26:03;;;;;;;15.97;7.73;;;;;;;;;;5027848;28;20155;-53
2021/01/27 12:28:29;;;;;;;12.40;7.00;;;;;;;;;;5002402;28;20180;-56
2021/01/27 12:30:56;;;;;;;10.80;6.83;;;;;;;;;;4994625;28;20129;-56
2021/01/27 12:33:22;;;;;;;9.80;7.50;;;;;;;;;;5005993;28;20048;-55
2021/01/27 12:35:48;;;;;;;12.57;8.10;;;;;;;;;;5027198;28;20041;-54
2021/01/27 12:38:14;;;;;;;11.27;8.40;;;;;;;;;;5022113;28;20512;-53
2021/01/27 12:40:40;;;;;;;13.73;8.23;;;;;;;;;;5015853;28;20454;-54
2021/01/27 12:43:06;;;;;;;14.50;7.80;;;;;;;;;;5036316;28;20090;-53
2021/01/27 12:45:32;;;;;;;11.47;7.73;;;;;;;;;;5005426;28;20476;-56
2021/01/27 12:47:58;;;;;;;11.80;8.60;;;;;;;;;;4991137;28;20391;-56
2021/01/27 12:50:24;;;;;;;12.53;8.03;;;;;;;;;;5006472;28;20407;-56
2021/01/27 12:52:50;;;;;;;10.53;7.03;;;;;;;;;;5014479;27;20129;-55
2021/01/27 12:55:17;;;;;;;10.00;7.60;;;;;;;;;;4998447;28;20431;-53
2021/01/27 12:57:44;;;;;;;14.80;8.23;;;;;;;;;;5003469;28;20468;-58
2021/01/27 13:00:12;;;;;;;15.30;7.90;;;;;;;;;;4996025;28;20358;-55
2021/01/27 13:02:39;;;;;;;11.90;8.83;;;;;;;;;;4999246;28;20050;-52
2021/01/27 13:05:05;;;;;;;14.50;8.37;;;;;;;;;;5033157;28;20045;-55
2021/01/27 13:07:31;;;;;;;15.80;8.03;;;;;;;;;;4990642;28;20441;-52
2021/01/27 13:09:57;;;;;;;12.43;8.13;;;;;;;;;;4996724;28;20038;-53
2021/01/27 13:12:24;;;;;;;12.33;7.97;;;;;;;;;;4976020;28;20961;-54
2021/01/27 13:14:51;;;;;;;15.00;8.20;;;;;;;;;;4995961;28;20041;-55
2021/01/27 13:23:24;;;;;;;11.90;8.10;;;;;;;;;;4965916;28;20126;-55
2021/01/27 13:25:50;;;;;;;12.87;7.70;;;;;;;;;;5002603;28;20041;-54
2021/01/27 13:28:16;;;;;;;12.53;8.93;;;;;;;;;;5021952;27;20040;-54
2021/01/27 13:30:42;;;;;;;10.30;7.20;;;;;;;;;;5008030;28;20062;-53
2021/01/27 13:33:09;;;;;;;11.07;8.10;;;;;;;;;;5006271;28;20402;-53
2021/01/27 13:35:36;;;;;;;13.40;7.80;;;;;;;;;;4988635;28;20049;-53
2021/01/27 13:38:02;;;;;;;12.67;7.40;;;;;;;;;;5027193;28;20494;-54
2021/01/27 13:40:29;;;;;;;12.77;7.40;;;;;;;;;;4993320;28;20039;-56
2021/01/27 13:42:55;;;;;;;10.50;8.07;;;;;;;;;;5022733;28;20512;-56
2021/01/27 13:45:23;;;;;;;11.23;7.73;;;;;;;;;;4993995;28;20050;-56
2021/01/27 13:47:49;;;;;;;15.03;9.23;;;;;;;;;;4999086;28;20078;-56
2021/01/27 13:50:15;;;;;;;15.30;7.77;;;;;;;;;;4995856;28;20046;-55
2021/01/27 13:52:42;;;;;;;10.10;7.50;;;;;;;;;;5005327;28;20045;-55
2021/01/27 13:55:08;;;;;;;11.50;7.30;;;;;;;;;;4990155;28;20043;-53
2021/01/27 13:57:34;;;;;;;12.10;7.27;;;;;;;;;;4992079;28;20053;-52
2021/01/27 14:00:00;;;;;;;12.30;6.57;;;;;;;;;;4977026;28;20046;-57
2021/01/27 14:02:26;;;;;;;11.27;8.23;;;;;;;;;;4999551;28;20183;-57
2021/01/27 14:04:52;;;;;;;17.67;8.17;;;;;;;;;;4996864;28;20132;-57
2021/01/27 14:07:18;;;;;;;16.73;8.90;;;;;;;;;;5007754;28;20531;-55
2021/01/27 14:09:44;;;;;;;12.70;7.77;;;;;;;;;;5005162;28;20093;-56
2021/01/27 14:12:10;;;;;;;12.03;7.33;;;;;;;;;;4998267;28;20038;-55
2021/01/27 14:14:36;;;;;;;13.83;7.03;;;;;;;;;;5003071;28;20054;-56
2021/01/27 14:17:02;;;;;;;10.90;8.17;;;;;;;;;;5025453;27;20037;-54
2021/01/27 14:19:28;;;;;;;16.50;9.67;;;;;;;;;;5021393;27;20150;-56
2021/01/27 14:21:54;;;;;;;16.90;8.47;;;;;;;;;;5008902;28;20118;-56
2021/01/27 14:24:20;;;;;;;14.63;8.03;;;;;;;;;;5020259;27;20053;-55
2021/01/27 14:26:46;;;;;;;14.93;7.80;;;;;;;;;;4999822;28;20038;-55
2021/01/27 14:29:12;;;;;;;10.57;7.63;;;;;;;;;;5041255;28;20042;-56
2021/01/27 14:31:38;;;;;;;14.77;8.03;;;;;;;;;;5000947;27;20041;-53
2021/01/27 14:34:04;;;;;;;14.77;7.37;;;;;;;;;;5006202;28;21187;-55
2021/01/27 14:36:30;;;;;;;15.27;8.20;;;;;;;;;;5000502;28;20409;-54
2021/01/27 14:38:56;;;;;;;14.70;7.63;;;;;;;;;;5005789;28;20034;-56
2021/01/27 14:41:23;;;;;;;14.53;6.97;;;;;;;;;;4999896;28;20049;-55
2021/01/27 14:43:49;;;;;;;12.67;8.27;;;;;;;;;;5001048;27;20057;-55
2021/01/27 14:46:15;;;;;;;9.93;7.87;;;;;;;;;;4975518;28;20085;-57
2021/01/27 14:48:41;;;;;;;11.13;6.80;;;;;;;;;;4997184;28;20033;-55
2021/01/27 14:51:07;;;;;;;14.10;7.57;;;;;;;;;;5000801;28;20041;-56
2021/01/27 14:53:33;;;;;;;17.20;8.07;;;;;;;;;;5004746;28;20135;-56
2021/01/27 14:55:59;;;;;;;15.47;7.70;;;;;;;;;;4987849;28;20053;-54
2021/01/27 14:58:25;;;;;;;12.60;8.20;;;;;;;;;;4998060;28;20592;-55
2021/01/27 15:00:52;;;;;;;13.67;7.07;;;;;;;;;;5004057;28;20117;-54